createdAt,value
2018-12-18T00:01:06.213Z,1.88
2018-12-18T00:03:32.095Z,1.84
2018-12-18T00:05:58.015Z,1.85
2018-12-18T00:08:23.892Z,1.77
2018-12-18T00:10:51.766Z,1.79
2018-12-18T00:13:17.626Z,1.73
2018-12-18T00:15:43.486Z,1.73
2018-12-18T00:18:09.306Z,1.74
2018-12-18T00:20:35.164Z,1.77
2018-12-18T00:23:00.998Z,1.72
2018-12-18T00:25:26.871Z,1.85
2018-12-18T00:30:45.403Z,1.75
2018-12-18T00:33:11.321Z,1.78
2018-12-18T00:35:37.200Z,1.90
2018-12-18T00:38:03.070Z,2.02
2018-12-18T00:40:28.930Z,2.25
2018-12-18T00:42:54.838Z,2.09
2018-12-18T00:45:20.665Z,2.03
2018-12-18T00:47:46.533Z,1.92
2018-12-18T00:50:13.334Z,1.88
2018-12-18T00:52:39.210Z,1.85
2018-12-18T00:55:05.390Z,1.81
2018-12-18T00:57:31.264Z,1.84
2018-12-18T00:59:57.225Z,1.92
2018-12-18T01:02:23.071Z,2.04
2018-12-18T01:04:55.939Z,2.15
2018-12-18T01:07:21.841Z,2.25
2018-12-18T01:09:48.119Z,2.42
2018-12-18T01:12:13.950Z,2.54
2018-12-18T01:14:39.815Z,2.61
2018-12-18T01:17:05.777Z,2.68
2018-12-18T01:19:31.726Z,2.64
2018-12-18T01:21:57.616Z,2.70
2018-12-18T01:24:23.470Z,2.76
2018-12-18T01:26:49.437Z,2.77
2018-12-18T01:29:15.299Z,2.79
2018-12-18T01:31:41.127Z,2.85
2018-12-18T01:34:07.038Z,0.66
2018-12-18T01:36:32.985Z,2.65
2018-12-18T01:38:58.845Z,2.44
2018-12-18T01:41:24.739Z,2.28
2018-12-18T01:43:50.596Z,2.12
2018-12-18T01:46:16.490Z,2.00
2018-12-18T01:48:42.315Z,1.98
2018-12-18T01:51:08.178Z,1.96
2018-12-18T01:53:34.018Z,2.00
2018-12-18T01:55:59.926Z,1.98
2018-12-18T01:58:25.797Z,2.04
2018-12-18T02:00:51.670Z,2.04
2018-12-18T02:03:17.540Z,1.98
2018-12-18T02:05:43.378Z,1.91
2018-12-18T02:08:09.290Z,1.87
2018-12-18T02:10:37.162Z,1.86
2018-12-18T02:13:03.025Z,1.98
2018-12-18T02:15:28.870Z,2.13
2018-12-18T02:17:54.759Z,2.00
2018-12-18T02:20:20.743Z,1.97
2018-12-18T02:22:46.583Z,1.94
2018-12-18T02:25:12.462Z,1.92
2018-12-18T02:27:38.322Z,1.87
2018-12-18T02:30:05.041Z,1.86
2018-12-18T02:32:30.941Z,1.89
2018-12-18T02:34:56.830Z,1.92
2018-12-18T02:37:22.686Z,1.97
2018-12-18T02:39:48.570Z,1.96
2018-12-18T02:42:14.433Z,1.97
2018-12-18T02:44:40.404Z,1.92
2018-12-18T02:47:06.387Z,1.85
2018-12-18T02:49:39.260Z,2.02
2018-12-18T02:52:05.140Z,2.12
2018-12-18T02:54:30.966Z,2.19
2018-12-18T02:56:56.853Z,2.40
2018-12-18T02:59:22.688Z,2.42
2018-12-18T03:01:48.559Z,2.33
2018-12-18T03:04:20.959Z,2.29
2018-12-18T03:06:42.390Z,2.15
2018-12-18T03:09:08.337Z,1.94
2018-12-18T03:11:34.199Z,1.93
2018-12-18T03:14:00.462Z,2.02
2018-12-18T03:16:26.322Z,2.21
2018-12-18T03:18:52.139Z,2.35
2018-12-18T03:21:17.998Z,2.46
2018-12-18T03:23:43.816Z,2.41
2018-12-18T03:26:09.663Z,2.58
2018-12-18T03:28:35.617Z,2.64
2018-12-18T03:31:01.480Z,2.61
2018-12-18T03:33:27.333Z,2.69
2018-12-18T03:35:53.227Z,2.66
2018-12-18T03:38:19.113Z,2.71
2018-12-18T03:40:44.974Z,2.80
2018-12-18T03:43:10.853Z,2.75
2018-12-18T03:45:36.700Z,2.74
2018-12-18T03:48:02.545Z,2.85
2018-12-18T03:50:28.386Z,2.86
2018-12-18T03:52:54.254Z,2.91
2018-12-18T03:55:20.119Z,2.87
2018-12-18T03:57:45.990Z,2.78
2018-12-18T04:00:11.879Z,2.59
2018-12-18T04:02:37.709Z,2.52
2018-12-18T04:05:04.046Z,2.61
2018-12-18T04:07:29.986Z,2.77
2018-12-18T04:09:55.837Z,2.77
2018-12-18T04:12:22.200Z,2.77
2018-12-18T04:14:48.270Z,2.81
2018-12-18T04:17:14.105Z,2.72
2018-12-18T04:19:40.125Z,2.65
2018-12-18T04:22:05.950Z,2.46
2018-12-18T04:24:31.802Z,2.34
2018-12-18T04:26:57.622Z,2.21
2018-12-18T04:29:23.449Z,2.14
2018-12-18T04:31:49.283Z,2.06
2018-12-18T04:34:15.130Z,2.05
2018-12-18T04:36:40.970Z,1.98
2018-12-18T04:39:06.927Z,2.03
2018-12-18T04:41:32.913Z,2.06
2018-12-18T04:43:58.793Z,2.07
2018-12-18T04:46:24.697Z,2.12
2018-12-18T04:48:50.646Z,2.10
2018-12-18T04:51:16.616Z,2.07
2018-12-18T04:53:42.479Z,2.07
2018-12-18T04:56:08.462Z,2.11
2018-12-18T04:58:34.345Z,2.11
2018-12-18T05:01:00.315Z,2.02
2018-12-18T05:03:26.210Z,1.94
2018-12-18T05:05:52.090Z,1.94
2018-12-18T05:08:17.938Z,1.99
2018-12-18T05:10:43.826Z,1.93
2018-12-18T05:13:09.687Z,1.91
2018-12-18T05:15:35.529Z,1.90
2018-12-18T05:18:01.448Z,1.91
2018-12-18T05:20:27.399Z,1.95
2018-12-18T05:22:53.329Z,1.91
2018-12-18T05:25:19.193Z,1.91
2018-12-18T05:27:45.089Z,1.96
2018-12-18T05:30:11.073Z,1.93
2018-12-18T05:32:36.928Z,1.93
2018-12-18T05:35:03.486Z,1.92
2018-12-18T05:37:29.330Z,1.99
2018-12-18T05:39:55.229Z,2.17
2018-12-18T05:42:21.071Z,2.06
2018-12-18T05:44:46.927Z,2.03
2018-12-18T05:47:12.910Z,2.02
2018-12-18T05:49:38.784Z,1.92
2018-12-18T05:52:04.655Z,1.90
2018-12-18T05:54:30.491Z,1.87
2018-12-18T05:56:56.314Z,1.87
2018-12-18T05:59:22.165Z,1.92
2018-12-18T06:01:47.999Z,1.92
2018-12-18T06:04:13.869Z,1.87
2018-12-18T06:06:39.834Z,1.84
2018-12-18T06:09:05.866Z,1.99
2018-12-18T06:11:31.730Z,2.05
2018-12-18T06:13:57.564Z,1.91
2018-12-18T06:16:23.462Z,1.89
2018-12-18T06:18:49.467Z,1.91
2018-12-18T06:21:15.398Z,1.91
2018-12-18T06:23:41.367Z,1.91
2018-12-18T06:26:07.245Z,1.91
2018-12-18T06:28:33.109Z,1.90
2018-12-18T06:30:58.959Z,1.80
2018-12-18T06:33:24.814Z,1.70
2018-12-18T06:35:50.677Z,1.66
2018-12-18T06:38:16.531Z,1.68
2018-12-18T06:40:49.417Z,1.69
2018-12-18T06:43:15.246Z,1.72
2018-12-18T06:45:41.109Z,1.79
2018-12-18T06:48:06.950Z,1.74
2018-12-18T06:50:32.834Z,1.75
2018-12-18T06:52:58.689Z,1.73
2018-12-18T06:55:25.760Z,1.73
2018-12-18T06:57:51.843Z,1.70
2018-12-18T07:00:17.685Z,1.72
2018-12-18T07:02:43.637Z,1.71
2018-12-18T07:05:09.610Z,1.72
2018-12-18T07:07:35.600Z,1.76
2018-12-18T07:10:01.466Z,1.80
2018-12-18T07:12:27.314Z,1.82
2018-12-18T07:14:53.270Z,1.89
2018-12-18T07:17:19.158Z,1.92
2018-12-18T07:19:45.006Z,1.95
2018-12-18T07:22:10.855Z,1.96
2018-12-18T07:24:36.749Z,1.94
2018-12-18T07:27:02.625Z,1.93
2018-12-18T07:29:29.511Z,1.93
2018-12-18T07:31:55.358Z,1.92
2018-12-18T07:34:21.222Z,1.83
2018-12-18T07:36:47.097Z,1.83
2018-12-18T07:39:12.990Z,1.83
2018-12-18T07:41:38.801Z,1.86
2018-12-18T07:44:04.784Z,1.89
2018-12-18T07:46:30.649Z,1.96
2018-12-18T07:48:56.498Z,1.94
2018-12-18T07:51:22.364Z,1.94
2018-12-18T07:53:48.230Z,1.91
2018-12-18T07:56:14.078Z,1.95
2018-12-18T07:58:39.952Z,1.96
2018-12-18T08:01:05.850Z,2.03
2018-12-18T08:03:31.718Z,2.15
2018-12-18T08:05:57.586Z,2.07
2018-12-18T08:08:23.422Z,2.04
2018-12-18T08:10:49.364Z,2.02
2018-12-18T08:13:15.203Z,2.00
2018-12-18T08:15:41.120Z,2.05
2018-12-18T08:18:06.975Z,2.05
2018-12-18T08:20:32.832Z,2.11
2018-12-18T08:22:58.698Z,2.08
2018-12-18T08:25:24.564Z,2.12
2018-12-18T08:27:50.444Z,2.17
2018-12-18T08:30:16.314Z,2.19
2018-12-18T08:32:42.165Z,2.21
2018-12-18T08:35:08.141Z,2.25
2018-12-18T08:37:34.010Z,2.24
2018-12-18T08:39:59.862Z,2.23
2018-12-18T08:42:25.739Z,2.28
2018-12-18T08:44:51.638Z,2.46
2018-12-18T08:47:17.613Z,2.43
2018-12-18T08:49:43.474Z,2.44
2018-12-18T08:52:09.390Z,2.41
2018-12-18T08:54:35.238Z,2.37
2018-12-18T08:57:01.085Z,2.43
2018-12-18T08:59:26.948Z,2.41
2018-12-18T09:01:52.797Z,2.40
2018-12-18T09:04:18.698Z,2.44
2018-12-18T09:06:44.534Z,2.43
2018-12-18T09:09:10.438Z,2.48
2018-12-18T09:11:36.651Z,2.64
2018-12-18T09:14:02.670Z,2.57
2018-12-18T09:16:34.739Z,2.53
2018-12-18T09:19:00.629Z,2.53
2018-12-18T09:21:26.482Z,2.51
2018-12-18T09:23:52.542Z,2.52
2018-12-18T09:26:18.538Z,2.49
2018-12-18T09:28:44.421Z,2.53
2018-12-18T09:31:11.523Z,2.59
2018-12-18T09:33:37.406Z,2.60
2018-12-18T09:36:03.735Z,2.70
2018-12-18T09:38:36.581Z,2.71
2018-12-18T09:41:09.828Z,2.74
2018-12-18T09:46:42.017Z,2.66
2018-12-18T09:49:07.995Z,2.78
2018-12-18T09:51:33.861Z,2.77
2018-12-18T09:54:00.732Z,2.80
2018-12-18T09:56:26.620Z,2.87
2018-12-18T09:58:52.978Z,2.99
2018-12-18T10:01:18.829Z,2.90
2018-12-18T10:03:44.738Z,2.88
2018-12-18T10:06:10.613Z,2.90
2018-12-18T10:08:37.243Z,2.76
2018-12-18T10:11:03.430Z,2.74
2018-12-18T10:13:30.234Z,2.70
2018-12-18T10:15:56.098Z,2.72
2018-12-18T10:18:21.979Z,2.70
2018-12-18T10:20:47.863Z,2.72
2018-12-18T10:23:13.719Z,2.69
2018-12-18T10:25:39.578Z,2.74
2018-12-18T10:28:05.422Z,2.82
2018-12-18T10:30:31.275Z,2.85
2018-12-18T10:32:57.178Z,2.93
2018-12-18T10:35:23.074Z,3.00
2018-12-18T10:37:49.064Z,3.00
2018-12-18T10:40:14.910Z,3.06
2018-12-18T10:42:40.862Z,3.16
2018-12-18T10:45:13.691Z,3.28
2018-12-18T10:47:37.635Z,3.38
2018-12-18T10:50:03.602Z,3.33
2018-12-18T10:52:29.475Z,3.51
2018-12-18T10:54:55.523Z,3.56
2018-12-18T10:57:21.503Z,3.60
2018-12-18T10:59:47.370Z,3.59
2018-12-18T11:02:13.225Z,3.59
2018-12-18T11:04:39.125Z,3.63
2018-12-18T11:07:05.791Z,3.67
2018-12-18T11:09:31.851Z,3.62
2018-12-18T11:11:57.722Z,3.61
2018-12-18T11:14:23.597Z,3.54
2018-12-18T11:16:49.452Z,3.54
2018-12-18T11:19:15.322Z,3.56
2018-12-18T11:21:41.192Z,3.62
2018-12-18T11:24:07.170Z,3.63
2018-12-18T11:26:33.046Z,3.58
2018-12-18T11:28:58.928Z,3.74
2018-12-18T11:31:24.946Z,3.74
2018-12-18T11:33:51.843Z,3.67
2018-12-18T11:36:17.697Z,3.50
2018-12-18T11:38:43.621Z,3.57
2018-12-18T11:41:09.518Z,3.61
2018-12-18T11:43:35.374Z,3.73
2018-12-18T11:46:01.230Z,3.80
2018-12-18T11:48:27.067Z,3.77
2018-12-18T11:50:52.975Z,3.88
2018-12-18T11:53:18.853Z,3.83
2018-12-18T11:55:44.752Z,3.72
2018-12-18T11:58:10.608Z,3.81
2018-12-18T12:00:36.926Z,3.79
2018-12-18T12:03:09.790Z,3.81
2018-12-18T12:05:35.657Z,3.88
2018-12-18T12:08:01.542Z,3.96
2018-12-18T12:10:27.364Z,3.98
2018-12-18T12:12:53.223Z,4.12
2018-12-18T12:15:19.100Z,4.24
2018-12-18T12:17:45.193Z,4.14
2018-12-18T12:20:11.331Z,4.08
2018-12-18T12:22:37.173Z,4.06
2018-12-18T12:25:05.606Z,3.95
2018-12-18T12:27:32.966Z,3.89
2018-12-18T12:29:58.965Z,3.88
2018-12-18T12:32:24.843Z,3.93
2018-12-18T12:34:50.776Z,3.92
2018-12-18T12:37:16.606Z,3.91
2018-12-18T12:39:42.613Z,4.00
2018-12-18T12:42:08.466Z,4.04
2018-12-18T12:44:34.342Z,4.12
2018-12-18T12:47:00.326Z,4.29
2018-12-18T12:49:28.236Z,4.29
2018-12-18T12:51:54.093Z,4.43
2018-12-18T12:54:20.169Z,4.32
2018-12-18T12:56:46.032Z,4.28
2018-12-18T12:59:11.981Z,4.34
2018-12-18T13:01:42.126Z,4.37
2018-12-18T13:04:05.789Z,4.18
2018-12-18T13:06:36.408Z,4.11
2018-12-18T13:08:59.524Z,4.11
2018-12-18T13:11:25.415Z,4.12
2018-12-18T13:13:51.250Z,4.11
2018-12-18T13:16:17.114Z,4.17
2018-12-18T13:18:42.955Z,4.19
2018-12-18T13:21:08.995Z,4.27
2018-12-18T13:23:34.830Z,4.12
2018-12-18T13:26:00.822Z,4.06
2018-12-18T13:28:26.668Z,3.88
2018-12-18T13:30:52.597Z,3.90
2018-12-18T13:33:18.677Z,3.85
2018-12-18T13:35:44.665Z,3.87
2018-12-18T13:38:10.758Z,3.59
2018-12-18T13:40:39.526Z,3.43
2018-12-18T13:43:05.403Z,3.44
2018-12-18T13:45:31.262Z,3.30
2018-12-18T13:47:57.154Z,3.27
2018-12-18T13:50:22.996Z,3.24
2018-12-18T13:52:48.850Z,3.28
2018-12-18T13:55:14.722Z,3.26
2018-12-18T13:57:40.661Z,3.13
2018-12-18T14:00:06.663Z,3.15
2018-12-18T14:02:32.573Z,2.94
2018-12-18T14:04:58.519Z,2.96
2018-12-18T14:07:24.378Z,3.03
2018-12-18T14:09:50.707Z,3.04
2018-12-18T14:12:16.578Z,3.07
2018-12-18T14:14:42.442Z,3.03
2018-12-18T14:17:08.307Z,2.96
2018-12-18T14:19:34.232Z,2.86
2018-12-18T14:22:00.166Z,2.92
2018-12-18T14:24:26.038Z,2.88
2018-12-18T14:26:51.987Z,2.79
2018-12-18T14:29:17.933Z,2.87
2018-12-18T14:31:43.803Z,2.86
2018-12-18T14:34:09.675Z,2.84
2018-12-18T14:36:35.606Z,2.93
2018-12-18T14:39:01.478Z,2.72
2018-12-18T14:41:27.328Z,2.72
2018-12-18T14:43:53.238Z,2.77
2018-12-18T14:46:19.098Z,2.69
2018-12-18T14:48:45.326Z,2.68
2018-12-18T14:51:11.216Z,2.62
2018-12-18T14:53:37.103Z,2.60
2018-12-18T14:56:03.055Z,2.77
2018-12-18T14:58:28.946Z,2.79
2018-12-18T15:00:54.915Z,2.62
2018-12-18T15:03:21.462Z,2.63
2018-12-18T15:05:47.330Z,2.66
2018-12-18T15:08:13.231Z,2.67
2018-12-18T15:10:39.114Z,2.66
2018-12-18T15:13:04.991Z,2.84
2018-12-18T15:15:30.899Z,2.67
2018-12-18T15:17:56.794Z,2.64
2018-12-18T15:20:22.818Z,2.62
2018-12-18T15:22:48.709Z,2.60
2018-12-18T15:25:14.622Z,2.63
2018-12-18T15:27:40.486Z,2.62
2018-12-18T15:30:06.895Z,2.61
2018-12-18T15:32:32.878Z,2.67
2018-12-18T15:34:58.837Z,2.69
2018-12-18T15:37:24.730Z,2.70
2018-12-18T15:39:50.641Z,2.76
2018-12-18T15:42:16.817Z,2.81
2018-12-18T15:44:42.705Z,2.86
2018-12-18T15:47:08.611Z,2.81
2018-12-18T15:49:34.538Z,2.80
2018-12-18T15:52:00.478Z,2.74
2018-12-18T15:54:26.356Z,2.67
2018-12-18T15:56:52.334Z,2.52
2018-12-18T15:59:18.238Z,2.52
2018-12-18T16:01:44.120Z,2.55
2018-12-18T16:04:10.034Z,2.59
2018-12-18T16:06:35.883Z,2.59
2018-12-18T16:09:01.951Z,2.60
2018-12-18T16:11:27.860Z,2.56
2018-12-18T16:13:53.760Z,2.49
2018-12-18T16:16:19.786Z,2.44
2018-12-18T16:18:45.824Z,2.45
2018-12-18T16:21:11.806Z,2.32
2018-12-18T16:23:37.684Z,2.25
2018-12-18T16:26:03.702Z,2.17
2018-12-18T16:28:29.599Z,2.11
2018-12-18T16:30:55.470Z,2.14
2018-12-18T16:33:21.299Z,2.16
2018-12-18T16:35:47.171Z,2.11
2018-12-18T16:38:13.089Z,2.19
2018-12-18T16:40:38.991Z,2.16
2018-12-18T16:43:04.861Z,2.08
2018-12-18T16:45:30.764Z,2.16
2018-12-18T16:47:56.631Z,2.15
2018-12-18T16:50:26.570Z,2.16
2018-12-18T16:52:50.429Z,2.15
2018-12-18T16:55:16.410Z,2.22
2018-12-18T16:57:42.253Z,2.26
2018-12-18T17:00:08.360Z,2.26
2018-12-18T17:02:34.426Z,2.09
2018-12-18T17:05:00.281Z,2.15
2018-12-18T17:07:29.552Z,2.15
2018-12-18T17:09:54.005Z,2.12
2018-12-18T17:12:19.962Z,2.11
2018-12-18T17:14:45.815Z,2.15
2018-12-18T17:17:11.687Z,2.13
2018-12-18T17:19:37.523Z,2.21
2018-12-18T17:22:03.398Z,2.27
2018-12-18T17:24:29.243Z,2.25
2018-12-18T17:26:55.111Z,2.23
2018-12-18T17:29:27.917Z,2.16
2018-12-18T17:31:53.782Z,2.19
2018-12-18T17:34:19.639Z,2.23
2018-12-18T17:36:45.472Z,2.27
2018-12-18T17:39:11.506Z,2.21
2018-12-18T17:41:37.478Z,2.22
2018-12-18T17:44:03.938Z,2.17
2018-12-18T17:46:29.765Z,2.13
2018-12-18T17:48:55.667Z,2.10
2018-12-18T17:51:21.529Z,2.09
2018-12-18T17:53:47.410Z,2.04
2018-12-18T17:56:13.282Z,2.01
2018-12-18T17:58:39.167Z,1.97
2018-12-18T18:01:05.147Z,1.92
2018-12-18T18:03:31.015Z,1.95
2018-12-18T18:05:56.906Z,1.90
2018-12-18T18:08:22.771Z,2.04
2018-12-18T18:10:48.609Z,2.07
2018-12-18T18:13:14.520Z,1.99
2018-12-18T18:15:40.513Z,2.03
2018-12-18T18:18:06.377Z,2.02
2018-12-18T18:20:32.257Z,2.02
2018-12-18T18:22:58.079Z,2.10
2018-12-18T18:25:24.068Z,2.24
2018-12-18T18:27:49.995Z,2.21
2018-12-18T18:30:15.992Z,2.08
2018-12-18T18:32:41.954Z,2.23
2018-12-18T18:35:07.853Z,2.14
2018-12-18T18:37:33.724Z,2.31
2018-12-18T18:39:59.712Z,2.25
2018-12-18T18:42:25.780Z,2.13
2018-12-18T18:44:51.655Z,2.16
2018-12-18T18:47:17.511Z,2.12
2018-12-18T18:49:43.451Z,2.06
2018-12-18T18:52:09.359Z,2.15
2018-12-18T18:54:35.239Z,2.06
2018-12-18T18:57:01.162Z,2.04
2018-12-18T18:59:27.102Z,2.24
2018-12-18T19:01:53.034Z,2.28
2018-12-18T19:04:18.881Z,2.40
2018-12-18T19:06:45.216Z,2.29
2018-12-18T19:09:11.128Z,2.30
2018-12-18T19:11:37.017Z,2.22
2018-12-18T19:14:03.148Z,2.15
2018-12-18T19:16:35.867Z,2.04
2018-12-18T19:19:01.754Z,2.12
2018-12-18T19:21:28.697Z,2.31
2018-12-18T19:23:54.572Z,2.36
2018-12-18T19:26:20.491Z,2.32
2018-12-18T19:28:50.160Z,2.23
2018-12-18T19:31:14.361Z,2.20
2018-12-18T19:33:40.304Z,2.31
2018-12-18T19:36:06.176Z,2.31
2018-12-18T19:38:32.107Z,2.18
2018-12-18T19:40:58.050Z,2.16
2018-12-18T19:43:24.054Z,2.28
2018-12-18T19:45:49.960Z,2.15
2018-12-18T19:48:15.842Z,2.05
2018-12-18T19:50:41.735Z,1.95
2018-12-18T19:53:07.618Z,2.05
2018-12-18T19:55:33.518Z,2.10
2018-12-18T19:57:59.451Z,1.99
2018-12-18T20:00:25.520Z,2.00
2018-12-18T20:02:51.443Z,1.97
2018-12-18T20:05:19.035Z,2.04
2018-12-18T20:07:45.257Z,2.11
2018-12-18T20:10:11.511Z,2.14
2018-12-18T20:12:37.466Z,2.12
2018-12-18T20:15:05.232Z,2.00
2018-12-18T20:17:31.374Z,1.94
2018-12-18T20:19:57.530Z,1.74
2018-12-18T20:22:24.288Z,1.73
2018-12-18T20:24:50.194Z,1.59
2018-12-18T20:27:16.096Z,1.69
2018-12-18T20:29:42.298Z,1.72
2018-12-18T20:32:08.199Z,1.69
2018-12-18T20:34:34.099Z,1.62
2018-12-18T20:37:00.019Z,1.62
2018-12-18T20:39:25.961Z,1.54
2018-12-18T20:41:51.851Z,1.64
2018-12-18T20:44:17.731Z,1.78
2018-12-18T20:46:43.625Z,1.74
2018-12-18T20:49:09.512Z,1.61
2018-12-18T20:51:35.618Z,1.46
2018-12-18T20:54:01.542Z,1.42
2018-12-18T20:56:27.424Z,1.47
2018-12-18T20:58:53.315Z,1.37
2018-12-18T21:01:19.278Z,1.37
2018-12-18T21:03:45.177Z,1.34
2018-12-18T21:06:11.763Z,1.36
2018-12-18T21:08:37.771Z,1.14
2018-12-18T21:11:03.643Z,1.26
2018-12-18T21:13:30.240Z,1.30
2018-12-18T21:15:56.433Z,1.25
2018-12-18T21:18:22.282Z,1.22
2018-12-18T21:20:48.170Z,1.12
2018-12-18T21:23:14.050Z,1.11
2018-12-18T21:25:40.019Z,1.14
2018-12-18T21:28:05.967Z,1.17
2018-12-18T21:30:31.835Z,1.12
2018-12-18T21:32:57.963Z,1.10
2018-12-18T21:35:23.882Z,1.05
2018-12-18T21:37:49.771Z,1.05
2018-12-18T21:40:15.643Z,0.93
2018-12-18T21:42:41.536Z,0.91
2018-12-18T21:45:07.406Z,0.99
2018-12-18T21:47:33.279Z,0.86
2018-12-18T21:50:06.171Z,0.78
2018-12-18T21:52:32.099Z,0.86
2018-12-18T21:54:58.035Z,0.95
2018-12-18T21:57:23.931Z,0.84
2018-12-18T21:59:49.765Z,0.75
2018-12-18T22:02:15.657Z,0.75
2018-12-18T22:04:41.549Z,0.78
2018-12-18T22:07:07.391Z,0.69
2018-12-18T22:09:33.248Z,0.68
2018-12-18T22:11:59.101Z,0.54
2018-12-18T22:14:24.973Z,0.49
2018-12-18T22:16:50.818Z,0.52
2018-12-18T22:19:16.705Z,-1.65
2018-12-18T22:21:42.550Z,0.52
2018-12-18T22:24:08.401Z,0.43
2018-12-18T22:26:34.251Z,0.39
2018-12-18T22:29:00.158Z,0.45
2018-12-18T22:31:26.071Z,0.20
2018-12-18T22:33:51.907Z,0.25
2018-12-18T22:36:17.766Z,0.24
2018-12-18T22:38:50.767Z,0.33
2018-12-18T22:41:16.652Z,0.39
2018-12-18T22:43:42.524Z,0.41
2018-12-18T22:46:08.398Z,0.46
2018-12-18T22:48:34.470Z,0.38
2018-12-18T22:51:00.378Z,0.37
2018-12-18T22:53:26.268Z,0.40
2018-12-18T22:55:59.090Z,0.49
2018-12-18T22:58:24.965Z,0.43
2018-12-18T23:00:58.110Z,0.39
2018-12-18T23:03:24.003Z,0.44
2018-12-18T23:05:49.877Z,0.47
2018-12-18T23:08:15.778Z,0.54
2018-12-18T23:10:41.618Z,0.49
2018-12-18T23:13:07.550Z,0.45
2018-12-18T23:15:33.426Z,0.48
2018-12-18T23:17:59.289Z,0.56
2018-12-18T23:20:25.169Z,0.56
2018-12-18T23:22:51.743Z,0.48
2018-12-18T23:25:17.603Z,0.55
2018-12-18T23:27:43.502Z,0.44
2018-12-18T23:30:09.378Z,0.50
2018-12-18T23:32:35.251Z,0.45
2018-12-18T23:35:01.126Z,0.42
2018-12-18T23:37:27.015Z,0.43
2018-12-18T23:39:52.866Z,0.45
2018-12-18T23:42:18.705Z,0.40
2018-12-18T23:44:44.649Z,0.53
2018-12-18T23:47:10.513Z,0.50
2018-12-18T23:49:36.422Z,0.46
2018-12-18T23:52:02.309Z,0.36
2018-12-18T23:54:28.204Z,0.28
2018-12-18T23:56:54.127Z,0.40
2018-12-18T23:59:19.990Z,0.44
